Terminal Aerodrome Forecast
Issued by NWS

Home | Current Version | Previous Version | Text Only | Print | Product List | Glossary On
Versions: 1 2 3 4 5 6 7 8 9 10 11 12 13
000
FTUS44 KMOB 242320
TAFBFM
TAF
KBFM 242320Z 2500/2524 12013KT P6SM BKN020 OVC040
     FM250300 13008KT P6SM BKN015
     FM251300 15010KT P6SM OVC025
     FM251600 17013G21KT P6SM BKN025 OVC050 PROB30 2518/2524 3SM
      TSRA BKN025CB=

USA.gov is the U.S. government's official web portal to all federal, state and local government web resources and services.